sensor_id;sensor_type;location;lat;lon;timestamp;pressure;altitude;pressure_sealevel;temperature;humidity
78855;BME280;68206;59.956;30.234;2023-07-16T00:01:13;101449.22;;;18.20;68.90
78855;BME280;68206;59.956;30.234;2023-07-16T00:03:41;101451.97;;;18.19;69.10
78855;BME280;68206;59.956;30.234;2023-07-16T00:06:10;101446.63;;;18.19;69.15
78855;BME280;68206;59.956;30.234;2023-07-16T00:08:40;101448.53;;;18.17;69.42
78855;BME280;68206;59.956;30.234;2023-07-16T00:11:10;101442.28;;;18.16;69.58
78855;BME280;68206;59.956;30.234;2023-07-16T00:13:43;101447.59;;;18.18;69.48
78855;BME280;68206;59.956;30.234;2023-07-16T00:16:15;101447.00;;;18.11;70.10
78855;BME280;68206;59.956;30.234;2023-07-16T00:18:44;101449.69;;;18.11;69.67
78855;BME280;68206;59.956;30.234;2023-07-16T00:21:18;101449.78;;;18.09;69.72
78855;BME280;68206;59.956;30.234;2023-07-16T00:23:46;101453.31;;;18.10;70.14
78855;BME280;68206;59.956;30.234;2023-07-16T00:26:29;101449.78;;;18.09;69.90
78855;BME280;68206;59.956;30.234;2023-07-16T00:28:58;101457.81;;;18.09;69.81
78855;BME280;68206;59.956;30.234;2023-07-16T00:31:34;101450.72;;;18.08;70.16
78855;BME280;68206;59.956;30.234;2023-07-16T00:34:16;101452.59;;;18.06;70.29
78855;BME280;68206;59.956;30.234;2023-07-16T00:36:48;101456.22;;;18.05;70.85
78855;BME280;68206;59.956;30.234;2023-07-16T00:39:16;101453.53;;;18.05;70.38
78855;BME280;68206;59.956;30.234;2023-07-16T00:41:57;101451.88;;;18.03;70.58
78855;BME280;68206;59.956;30.234;2023-07-16T00:44:25;101454.69;;;18.00;70.72
78855;BME280;68206;59.956;30.234;2023-07-16T00:46:54;101457.47;;;17.98;70.73
78855;BME280;68206;59.956;30.234;2023-07-16T00:49:23;101460.16;;;17.98;70.67
78855;BME280;68206;59.956;30.234;2023-07-16T00:51:58;101455.81;;;17.96;71.12
78855;BME280;68206;59.956;30.234;2023-07-16T00:54:29;101453.34;;;17.91;71.21
78855;BME280;68206;59.956;30.234;2023-07-16T00:57:01;101460.53;;;17.91;71.21
78855;BME280;68206;59.956;30.234;2023-07-16T00:59:33;101462.34;;;17.90;71.27
78855;BME280;68206;59.956;30.234;2023-07-16T01:02:01;101466.91;;;17.88;71.63
78855;BME280;68206;59.956;30.234;2023-07-16T01:04:33;101457.97;;;17.88;71.62
78855;BME280;68206;59.956;30.234;2023-07-16T01:07:04;101451.84;;;17.86;72.05
78855;BME280;68206;59.956;30.234;2023-07-16T01:09:36;101448.13;;;17.88;71.82
78855;BME280;68206;59.956;30.234;2023-07-16T01:12:12;101447.19;;;17.89;71.82
78855;BME280;68206;59.956;30.234;2023-07-16T01:14:41;101445.38;;;17.90;71.88
78855;BME280;68206;59.956;30.234;2023-07-16T01:17:16;101444.50;;;17.89;71.95
78855;BME280;68206;59.956;30.234;2023-07-16T01:19:47;101447.97;;;17.91;72.18
78855;BME280;68206;59.956;30.234;2023-07-16T01:22:40;101456.69;;;17.96;71.89
78855;BME280;68206;59.956;30.234;2023-07-16T01:25:36;101455.75;;;17.97;72.13
78855;BME280;68206;59.956;30.234;2023-07-16T01:28:21;101461.03;;;17.99;72.24
78855;BME280;68206;59.956;30.234;2023-07-16T01:30:58;101461.75;;;18.02;72.28
78855;BME280;68206;59.956;30.234;2023-07-16T01:33:34;101466.88;;;18.07;72.15
78855;BME280;68206;59.956;30.234;2023-07-16T01:36:07;101463.91;;;18.13;71.94
78855;BME280;68206;59.956;30.234;2023-07-16T01:38:36;101461.00;;;18.18;71.83
78855;BME280;68206;59.956;30.234;2023-07-16T01:41:13;101460.53;;;18.27;71.48
78855;BME280;68206;59.956;30.234;2023-07-16T01:43:45;101456.69;;;18.32;70.79
78855;BME280;68206;59.956;30.234;2023-07-16T01:46:19;101458.03;;;18.41;70.78
78855;BME280;68206;59.956;30.234;2023-07-16T01:48:52;101456.00;;;18.46;69.93
78855;BME280;68206;59.956;30.234;2023-07-16T01:51:21;101457.28;;;18.56;69.76
78855;BME280;68206;59.956;30.234;2023-07-16T01:54:04;101456.66;;;18.68;68.87
78855;BME280;68206;59.956;30.234;2023-07-16T01:56:36;101457.75;;;18.81;68.71
78855;BME280;68206;59.956;30.234;2023-07-16T01:59:11;101459.81;;;18.93;68.06
78855;BME280;68206;59.956;30.234;2023-07-16T02:02:21;101457.13;;;19.11;67.15
78855;BME280;68206;59.956;30.234;2023-07-16T02:04:51;101453.59;;;19.26;66.96
78855;BME280;68206;59.956;30.234;2023-07-16T02:07:29;101455.34;;;19.43;65.96
78855;BME280;68206;59.956;30.234;2023-07-16T02:10:07;101456.31;;;19.59;65.32
78855;BME280;68206;59.956;30.234;2023-07-16T02:12:44;101467.78;;;19.78;64.44
78855;BME280;68206;59.956;30.234;2023-07-16T02:15:20;101466.84;;;19.95;64.11
78855;BME280;68206;59.956;30.234;2023-07-16T02:17:57;101463.28;;;20.10;63.56
78855;BME280;68206;59.956;30.234;2023-07-16T02:20:26;101475.78;;;20.27;62.73
78855;BME280;68206;59.956;30.234;2023-07-16T02:23:15;101478.13;;;20.48;61.99
78855;BME280;68206;59.956;30.234;2023-07-16T02:25:51;101476.34;;;20.63;61.22
78855;BME280;68206;59.956;30.234;2023-07-16T02:28:31;101476.03;;;20.83;60.70
78855;BME280;68206;59.956;30.234;2023-07-16T02:31:04;101487.53;;;21.01;60.08
78855;BME280;68206;59.956;30.234;2023-07-16T02:33:50;101490.69;;;21.23;59.17
78855;BME280;68206;59.956;30.234;2023-07-16T02:36:26;101484.63;;;21.48;58.46
78855;BME280;68206;59.956;30.234;2023-07-16T02:38:59;101497.06;;;21.79;57.38
78855;BME280;68206;59.956;30.234;2023-07-16T02:41:29;101500.28;;;22.12;56.63
78855;BME280;68206;59.956;30.234;2023-07-16T02:44:05;101489.97;;;22.46;55.36
78855;BME280;68206;59.956;30.234;2023-07-16T02:46:36;101500.09;;;22.96;53.64
78855;BME280;68206;59.956;30.234;2023-07-16T02:49:06;101500.16;;;23.59;52.50
78855;BME280;68206;59.956;30.234;2023-07-16T02:51:39;101496.75;;;24.30;49.83
78855;BME280;68206;59.956;30.234;2023-07-16T02:54:07;101493.44;;;25.09;47.01
78855;BME280;68206;59.956;30.234;2023-07-16T02:56:39;101496.56;;;26.05;45.41
78855;BME280;68206;59.956;30.234;2023-07-16T02:59:17;101497.63;;;27.11;43.09
78855;BME280;68206;59.956;30.234;2023-07-16T03:01:51;101504.00;;;28.12;40.72
78855;BME280;68206;59.956;30.234;2023-07-16T03:04:27;101498.53;;;29.00;37.44
78855;BME280;68206;59.956;30.234;2023-07-16T03:07:01;101497.41;;;30.05;35.88
78855;BME280;68206;59.956;30.234;2023-07-16T03:09:29;101507.06;;;31.08;33.99
78855;BME280;68206;59.956;30.234;2023-07-16T03:12:05;101501.72;;;32.18;32.10
78855;BME280;68206;59.956;30.234;2023-07-16T03:14:40;101508.97;;;32.85;31.13
78855;BME280;68206;59.956;30.234;2023-07-16T03:17:16;101508.19;;;33.64;29.68
78855;BME280;68206;59.956;30.234;2023-07-16T03:19:54;101496.44;;;34.33;28.13
78855;BME280;68206;59.956;30.234;2023-07-16T03:22:33;101498.88;;;34.82;27.14
78855;BME280;68206;59.956;30.234;2023-07-16T03:25:11;101500.75;;;35.27;26.42
78855;BME280;68206;59.956;30.234;2023-07-16T03:27:39;101507.00;;;35.73;25.75
78855;BME280;68206;59.956;30.234;2023-07-16T03:30:19;101503.06;;;36.12;25.22
78855;BME280;68206;59.956;30.234;2023-07-16T03:32:47;101506.53;;;36.50;24.74
78855;BME280;68206;59.956;30.234;2023-07-16T03:35:26;101500.38;;;36.69;23.68
78855;BME280;68206;59.956;30.234;2023-07-16T03:38:03;101506.56;;;36.92;22.89
78855;BME280;68206;59.956;30.234;2023-07-16T03:40:31;101502.75;;;37.42;22.78
78855;BME280;68206;59.956;30.234;2023-07-16T03:43:07;101498.34;;;37.82;22.31
78855;BME280;68206;59.956;30.234;2023-07-16T03:45:38;101498.00;;;37.99;22.30
78855;BME280;68206;59.956;30.234;2023-07-16T03:48:13;101505.53;;;38.52;20.96
78855;BME280;68206;59.956;30.234;2023-07-16T03:50:43;101502.41;;;38.95;20.52
78855;BME280;68206;59.956;30.234;2023-07-16T03:53:20;101502.84;;;39.38;20.39
78855;BME280;68206;59.956;30.234;2023-07-16T03:55:57;101497.50;;;39.49;20.80
78855;BME280;68206;59.956;30.234;2023-07-16T03:58:34;101504.63;;;40.10;19.85
78855;BME280;68206;59.956;30.234;2023-07-16T04:01:13;101514.44;;;40.57;18.90
78855;BME280;68206;59.956;30.234;2023-07-16T04:03:41;101505.78;;;40.40;19.13
78855;BME280;68206;59.956;30.234;2023-07-16T04:06:16;101513.78;;;40.93;19.05
78855;BME280;68206;59.956;30.234;2023-07-16T04:08:49;101524.25;;;41.29;18.01
78855;BME280;68206;59.956;30.234;2023-07-16T04:11:18;101513.56;;;41.51;17.74
78855;BME280;68206;59.956;30.234;2023-07-16T04:13:52;101508.00;;;41.87;17.19
78855;BME280;68206;59.956;30.234;2023-07-16T04:16:22;101512.91;;;42.10;17.04
78855;BME280;68206;59.956;30.234;2023-07-16T04:18:54;101505.31;;;42.35;17.46
78855;BME280;68206;59.956;30.234;2023-07-16T04:21:26;101510.88;;;42.35;17.31
78855;BME280;68206;59.956;30.234;2023-07-16T04:23:55;101507.94;;;42.90;16.86
78855;BME280;68206;59.956;30.234;2023-07-16T04:26:31;101514.31;;;43.20;16.49
78855;BME280;68206;59.956;30.234;2023-07-16T04:29:05;101513.75;;;43.53;16.00
78855;BME280;68206;59.956;30.234;2023-07-16T04:31:36;101512.00;;;43.75;15.36
78855;BME280;68206;59.956;30.234;2023-07-16T04:34:05;101517.97;;;43.67;15.49
78855;BME280;68206;59.956;30.234;2023-07-16T04:36:57;101514.09;;;43.68;14.88
78855;BME280;68206;59.956;30.234;2023-07-16T04:39:30;101515.00;;;43.04;16.04
78855;BME280;68206;59.956;30.234;2023-07-16T04:41:58;101517.50;;;43.35;16.01
78855;BME280;68206;59.956;30.234;2023-07-16T04:44:31;101518.09;;;43.61;15.59
78855;BME280;68206;59.956;30.234;2023-07-16T04:46:59;101524.81;;;44.23;14.99
78855;BME280;68206;59.956;30.234;2023-07-16T04:49:35;101526.75;;;44.63;14.57
78855;BME280;68206;59.956;30.234;2023-07-16T04:52:12;101526.41;;;44.19;14.47
78855;BME280;68206;59.956;30.234;2023-07-16T04:54:46;101527.78;;;44.16;14.60
78855;BME280;68206;59.956;30.234;2023-07-16T04:57:18;101537.19;;;44.95;14.75
78855;BME280;68206;59.956;30.234;2023-07-16T04:59:49;101532.88;;;45.38;14.27
78855;BME280;68206;59.956;30.234;2023-07-16T05:02:21;101537.47;;;45.44;13.69
78855;BME280;68206;59.956;30.234;2023-07-16T05:04:49;101531.19;;;45.20;14.09
78855;BME280;68206;59.956;30.234;2023-07-16T05:07:37;101543.28;;;44.92;14.02
78855;BME280;68206;59.956;30.234;2023-07-16T05:10:06;101540.50;;;44.64;14.05
78855;BME280;68206;59.956;30.234;2023-07-16T05:12:37;101545.69;;;45.17;13.96
78855;BME280;68206;59.956;30.234;2023-07-16T05:15:07;101542.47;;;45.59;13.54
78855;BME280;68206;59.956;30.234;2023-07-16T05:17:41;101536.47;;;45.89;13.38
78855;BME280;68206;59.956;30.234;2023-07-16T05:20:19;101543.25;;;45.93;13.40
78855;BME280;68206;59.956;30.234;2023-07-16T05:23:03;101530.94;;;46.37;12.58
78855;BME280;68206;59.956;30.234;2023-07-16T05:25:46;101549.78;;;46.64;12.99
78855;BME280;68206;59.956;30.234;2023-07-16T05:28:24;101549.28;;;46.93;11.99
78855;BME280;68206;59.956;30.234;2023-07-16T05:30:58;101554.50;;;47.12;12.35
78855;BME280;68206;59.956;30.234;2023-07-16T05:33:28;101552.13;;;46.99;12.84
78855;BME280;68206;59.956;30.234;2023-07-16T05:36:02;101552.19;;;47.04;12.56
78855;BME280;68206;59.956;30.234;2023-07-16T05:38:32;101555.38;;;47.17;12.62
78855;BME280;68206;59.956;30.234;2023-07-16T05:41:08;101553.25;;;46.98;12.55
78855;BME280;68206;59.956;30.234;2023-07-16T05:43:36;101560.47;;;47.20;12.26
78855;BME280;68206;59.956;30.234;2023-07-16T05:46:12;101558.88;;;46.98;12.73
78855;BME280;68206;59.956;30.234;2023-07-16T05:48:54;101554.00;;;46.39;12.47
78855;BME280;68206;59.956;30.234;2023-07-16T05:51:25;101561.34;;;46.45;12.89
78855;BME280;68206;59.956;30.234;2023-07-16T05:53:55;101547.56;;;47.24;12.13
78855;BME280;68206;59.956;30.234;2023-07-16T05:56:31;101547.31;;;47.63;11.80
78855;BME280;68206;59.956;30.234;2023-07-16T05:59:04;101557.78;;;47.36;11.88
78855;BME280;68206;59.956;30.234;2023-07-16T06:01:36;101557.16;;;47.60;12.14
78855;BME280;68206;59.956;30.234;2023-07-16T06:04:06;101557.97;;;47.98;11.59
78855;BME280;68206;59.956;30.234;2023-07-16T06:06:37;101562.38;;;47.79;12.00
78855;BME280;68206;59.956;30.234;2023-07-16T06:09:07;101559.34;;;47.95;11.25
78855;BME280;68206;59.956;30.234;2023-07-16T06:11:35;101557.84;;;48.35;11.69
78855;BME280;68206;59.956;30.234;2023-07-16T06:14:03;101555.63;;;48.42;11.39
78855;BME280;68206;59.956;30.234;2023-07-16T06:16:37;101550.63;;;48.64;11.36
78855;BME280;68206;59.956;30.234;2023-07-16T06:19:13;101554.00;;;48.56;11.31
78855;BME280;68206;59.956;30.234;2023-07-16T06:21:49;101558.50;;;48.47;11.41
78855;BME280;68206;59.956;30.234;2023-07-16T06:24:35;101551.72;;;48.48;11.78
78855;BME280;68206;59.956;30.234;2023-07-16T06:27:08;101556.16;;;48.34;11.61
78855;BME280;68206;59.956;30.234;2023-07-16T06:29:43;101561.88;;;47.97;12.18
78855;BME280;68206;59.956;30.234;2023-07-16T06:32:14;101561.84;;;47.92;12.10
78855;BME280;68206;59.956;30.234;2023-07-16T06:34:53;101552.03;;;47.99;12.35
78855;BME280;68206;59.956;30.234;2023-07-16T06:37:29;101565.94;;;47.69;12.79
78855;BME280;68206;59.956;30.234;2023-07-16T06:40:08;101557.50;;;47.69;11.92
78855;BME280;68206;59.956;30.234;2023-07-16T06:42:40;101558.78;;;47.56;12.38
78855;BME280;68206;59.956;30.234;2023-07-16T06:45:17;101558.91;;;47.03;12.72
78855;BME280;68206;59.956;30.234;2023-07-16T06:47:54;101555.81;;;47.31;12.39
78855;BME280;68206;59.956;30.234;2023-07-16T06:50:31;101557.75;;;47.30;12.45
78855;BME280;68206;59.956;30.234;2023-07-16T06:53:05;101557.81;;;47.72;11.92
78855;BME280;68206;59.956;30.234;2023-07-16T06:55:40;101555.06;;;47.41;12.73
78855;BME280;68206;59.956;30.234;2023-07-16T06:58:15;101554.91;;;47.62;12.34
78855;BME280;68206;59.956;30.234;2023-07-16T07:00:44;101546.38;;;47.47;11.78
78855;BME280;68206;59.956;30.234;2023-07-16T07:03:19;101557.34;;;47.49;12.55
78855;BME280;68206;59.956;30.234;2023-07-16T07:05:55;101546.69;;;47.51;11.69
78855;BME280;68206;59.956;30.234;2023-07-16T07:11:13;101552.47;;;47.34;12.24
78855;BME280;68206;59.956;30.234;2023-07-16T07:13:41;101549.69;;;47.76;12.23
78855;BME280;68206;59.956;30.234;2023-07-16T07:16:29;101551.81;;;47.59;11.59
78855;BME280;68206;59.956;30.234;2023-07-16T07:19:00;101542.09;;;47.40;12.16
78855;BME280;68206;59.956;30.234;2023-07-16T07:21:44;101545.34;;;47.63;11.54
78855;BME280;68206;59.956;30.234;2023-07-16T07:24:22;101554.53;;;47.91;11.44
78855;BME280;68206;59.956;30.234;2023-07-16T07:26:56;101559.19;;;47.70;11.36
78855;BME280;68206;59.956;30.234;2023-07-16T07:29:25;101558.09;;;47.71;11.04
78855;BME280;68206;59.956;30.234;2023-07-16T07:31:53;101557.31;;;47.44;10.82
78855;BME280;68206;59.956;30.234;2023-07-16T07:34:21;101558.47;;;47.48;11.16
78855;BME280;68206;59.956;30.234;2023-07-16T07:36:49;101559.16;;;47.65;11.22
78855;BME280;68206;59.956;30.234;2023-07-16T07:39:17;101557.06;;;47.18;11.26
78855;BME280;68206;59.956;30.234;2023-07-16T07:41:45;101551.44;;;47.50;11.49
78855;BME280;68206;59.956;30.234;2023-07-16T07:44:15;101550.81;;;47.38;11.67
78855;BME280;68206;59.956;30.234;2023-07-16T07:46:43;101546.31;;;46.78;11.62
78855;BME280;68206;59.956;30.234;2023-07-16T07:49:11;101551.69;;;46.36;12.36
78855;BME280;68206;59.956;30.234;2023-07-16T07:51:39;101547.16;;;45.92;12.33
78855;BME280;68206;59.956;30.234;2023-07-16T07:54:07;101541.44;;;45.65;12.34
78855;BME280;68206;59.956;30.234;2023-07-16T07:56:35;101540.09;;;45.34;12.64
78855;BME280;68206;59.956;30.234;2023-07-16T07:59:04;101538.41;;;44.71;13.19
78855;BME280;68206;59.956;30.234;2023-07-16T08:01:34;101533.47;;;44.21;13.73
78855;BME280;68206;59.956;30.234;2023-07-16T08:04:03;101537.53;;;44.42;13.75
78855;BME280;68206;59.956;30.234;2023-07-16T08:06:31;101536.41;;;44.83;13.04
78855;BME280;68206;59.956;30.234;2023-07-16T08:08:59;101536.41;;;44.83;12.83
78855;BME280;68206;59.956;30.234;2023-07-16T08:11:27;101538.38;;;44.43;13.17
78855;BME280;68206;59.956;30.234;2023-07-16T08:13:55;101521.44;;;44.21;12.97
78855;BME280;68206;59.956;30.234;2023-07-16T08:16:24;101521.63;;;43.56;13.70
78855;BME280;68206;59.956;30.234;2023-07-16T08:18:53;101525.03;;;42.93;14.03
78855;BME280;68206;59.956;30.234;2023-07-16T08:21:22;101526.06;;;42.21;14.30
78855;BME280;68206;59.956;30.234;2023-07-16T08:23:50;101529.84;;;41.72;15.02
78855;BME280;68206;59.956;30.234;2023-07-16T08:26:18;101528.59;;;41.43;15.49
78855;BME280;68206;59.956;30.234;2023-07-16T08:28:46;101529.06;;;40.84;15.45
78855;BME280;68206;59.956;30.234;2023-07-16T08:31:14;101519.41;;;40.86;15.90
78855;BME280;68206;59.956;30.234;2023-07-16T08:33:43;101516.31;;;40.69;16.02
78855;BME280;68206;59.956;30.234;2023-07-16T08:36:12;101512.41;;;39.68;16.75
78855;BME280;68206;59.956;30.234;2023-07-16T08:38:40;101514.38;;;39.22;17.46
78855;BME280;68206;59.956;30.234;2023-07-16T08:41:09;101514.38;;;38.95;18.05
78855;BME280;68206;59.956;30.234;2023-07-16T08:43:38;101503.47;;;38.26;17.96
78855;BME280;68206;59.956;30.234;2023-07-16T08:46:07;101495.16;;;37.51;18.58
78855;BME280;68206;59.956;30.234;2023-07-16T08:48:36;101499.16;;;36.06;20.72
78855;BME280;68206;59.956;30.234;2023-07-16T08:51:04;101499.81;;;35.12;21.55
78855;BME280;68206;59.956;30.234;2023-07-16T08:53:35;101490.19;;;34.39;23.44
78855;BME280;68206;59.956;30.234;2023-07-16T08:56:04;101491.03;;;33.70;23.29
78855;BME280;68206;59.956;30.234;2023-07-16T08:58:32;101485.06;;;33.26;24.02
78855;BME280;68206;59.956;30.234;2023-07-16T09:01:01;101491.59;;;32.68;25.37
78855;BME280;68206;59.956;30.234;2023-07-16T09:03:30;101486.84;;;32.20;26.13
78855;BME280;68206;59.956;30.234;2023-07-16T09:05:58;101487.94;;;31.68;26.86
78855;BME280;68206;59.956;30.234;2023-07-16T09:08:26;101492.41;;;31.43;27.06
78855;BME280;68206;59.956;30.234;2023-07-16T09:10:57;101486.09;;;31.24;27.79
78855;BME280;68206;59.956;30.234;2023-07-16T09:13:25;101490.63;;;30.90;28.32
78855;BME280;68206;59.956;30.234;2023-07-16T09:15:56;101487.81;;;30.64;28.79
78855;BME280;68206;59.956;30.234;2023-07-16T09:18:26;101492.16;;;30.39;29.16
78855;BME280;68206;59.956;30.234;2023-07-16T09:20:55;101498.28;;;30.24;29.86
78855;BME280;68206;59.956;30.234;2023-07-16T09:23:24;101491.22;;;30.03;29.93
78855;BME280;68206;59.956;30.234;2023-07-16T09:25:54;101486.97;;;29.45;31.25
78855;BME280;68206;59.956;30.234;2023-07-16T09:28:23;101489.19;;;29.22;32.08
78855;BME280;68206;59.956;30.234;2023-07-16T09:30:52;101488.78;;;28.98;32.45
78855;BME280;68206;59.956;30.234;2023-07-16T09:33:21;101490.38;;;28.91;32.78
78855;BME280;68206;59.956;30.234;2023-07-16T09:35:53;101486.47;;;28.93;32.64
78855;BME280;68206;59.956;30.234;2023-07-16T09:38:22;101488.78;;;28.88;33.04
78855;BME280;68206;59.956;30.234;2023-07-16T09:40:51;101479.88;;;28.76;33.55
78855;BME280;68206;59.956;30.234;2023-07-16T09:43:20;101488.19;;;28.65;33.21
78855;BME280;68206;59.956;30.234;2023-07-16T09:45:50;101485.00;;;28.51;34.22
78855;BME280;68206;59.956;30.234;2023-07-16T09:48:19;101484.72;;;28.34;33.59
78855;BME280;68206;59.956;30.234;2023-07-16T09:50:50;101486.56;;;28.24;33.73
78855;BME280;68206;59.956;30.234;2023-07-16T09:53:23;101484.69;;;28.15;33.12
78855;BME280;68206;59.956;30.234;2023-07-16T09:55:55;101470.91;;;27.77;33.41
78855;BME280;68206;59.956;30.234;2023-07-16T09:58:24;101471.69;;;27.58;33.30
78855;BME280;68206;59.956;30.234;2023-07-16T10:00:55;101472.00;;;27.44;33.66
78855;BME280;68206;59.956;30.234;2023-07-16T10:03:24;101469.28;;;27.44;33.45
78855;BME280;68206;59.956;30.234;2023-07-16T10:05:52;101465.56;;;27.24;33.58
78855;BME280;68206;59.956;30.234;2023-07-16T10:08:20;101465.50;;;27.05;33.04
78855;BME280;68206;59.956;30.234;2023-07-16T10:10:53;101469.00;;;27.16;32.89
78855;BME280;68206;59.956;30.234;2023-07-16T10:13:24;101468.63;;;27.30;33.38
78855;BME280;68206;59.956;30.234;2023-07-16T10:15:53;101470.81;;;27.37;32.55
78855;BME280;68206;59.956;30.234;2023-07-16T10:18:30;101468.41;;;27.43;33.05
78855;BME280;68206;59.956;30.234;2023-07-16T10:21:01;101466.88;;;27.50;34.01
78855;BME280;68206;59.956;30.234;2023-07-16T10:23:37;101461.25;;;27.42;32.39
78855;BME280;68206;59.956;30.234;2023-07-16T10:26:07;101455.63;;;27.34;32.72
78855;BME280;68206;59.956;30.234;2023-07-16T10:28:37;101464.50;;;27.36;33.96
78855;BME280;68206;59.956;30.234;2023-07-16T10:31:06;101453.47;;;27.38;33.90
78855;BME280;68206;59.956;30.234;2023-07-16T10:33:56;101461.38;;;27.41;34.88
78855;BME280;68206;59.956;30.234;2023-07-16T10:36:24;101460.78;;;27.37;35.25
78855;BME280;68206;59.956;30.234;2023-07-16T10:38:52;101454.63;;;27.35;35.80
78855;BME280;68206;59.956;30.234;2023-07-16T10:41:20;101447.91;;;27.39;35.96
78855;BME280;68206;59.956;30.234;2023-07-16T10:43:49;101444.31;;;27.39;35.77
78855;BME280;68206;59.956;30.234;2023-07-16T10:46:21;101446.72;;;27.32;35.81
78855;BME280;68206;59.956;30.234;2023-07-16T10:48:51;101442.22;;;27.21;34.73
78855;BME280;68206;59.956;30.234;2023-07-16T10:51:25;101437.97;;;27.08;33.09
78855;BME280;68206;59.956;30.234;2023-07-16T10:53:55;101441.69;;;27.07;33.03
78855;BME280;68206;59.956;30.234;2023-07-16T10:56:23;101451.53;;;26.98;32.13
78855;BME280;68206;59.956;30.234;2023-07-16T10:58:55;101438.50;;;27.02;31.69
78855;BME280;68206;59.956;30.234;2023-07-16T11:01:33;101438.84;;;27.08;32.32
78855;BME280;68206;59.956;30.234;2023-07-16T11:04:09;101426.22;;;27.07;32.60
78855;BME280;68206;59.956;30.234;2023-07-16T11:06:37;101423.25;;;27.10;31.93
78855;BME280;68206;59.956;30.234;2023-07-16T11:09:14;101413.13;;;27.01;31.24
78855;BME280;68206;59.956;30.234;2023-07-16T11:11:44;101420.44;;;27.01;31.95
78855;BME280;68206;59.956;30.234;2023-07-16T11:14:17;101415.53;;;26.95;31.69
78855;BME280;68206;59.956;30.234;2023-07-16T11:16:46;101416.16;;;26.98;31.56
78855;BME280;68206;59.956;30.234;2023-07-16T11:19:34;101412.34;;;26.89;31.38
78855;BME280;68206;59.956;30.234;2023-07-16T11:22:16;101403.91;;;26.93;31.79
78855;BME280;68206;59.956;30.234;2023-07-16T11:24:51;101410.09;;;26.95;31.60
78855;BME280;68206;59.956;30.234;2023-07-16T11:27:34;101409.50;;;26.91;32.28
78855;BME280;68206;59.956;30.234;2023-07-16T11:30:08;101406.03;;;26.89;32.68
78855;BME280;68206;59.956;30.234;2023-07-16T11:32:42;101400.97;;;26.84;31.59
78855;BME280;68206;59.956;30.234;2023-07-16T11:35:18;101400.09;;;26.84;31.49
78855;BME280;68206;59.956;30.234;2023-07-16T11:37:47;101407.13;;;26.86;31.76
78855;BME280;68206;59.956;30.234;2023-07-16T11:40:17;101392.53;;;26.87;31.43
78855;BME280;68206;59.956;30.234;2023-07-16T11:42:47;101403.06;;;26.92;31.68
78855;BME280;68206;59.956;30.234;2023-07-16T11:45:16;101393.88;;;26.93;31.21
78855;BME280;68206;59.956;30.234;2023-07-16T11:47:45;101407.13;;;26.86;30.97
78855;BME280;68206;59.956;30.234;2023-07-16T11:50:15;101400.53;;;26.79;30.60
78855;BME280;68206;59.956;30.234;2023-07-16T11:52:52;101390.09;;;26.84;31.06
78855;BME280;68206;59.956;30.234;2023-07-16T11:55:20;101387.28;;;26.75;30.65
78855;BME280;68206;59.956;30.234;2023-07-16T11:57:48;101388.56;;;26.71;30.62
78855;BME280;68206;59.956;30.234;2023-07-16T12:00:17;101384.31;;;26.57;30.33
78855;BME280;68206;59.956;30.234;2023-07-16T12:02:45;101378.84;;;26.57;31.14
78855;BME280;68206;59.956;30.234;2023-07-16T12:05:21;101379.47;;;26.61;31.23
78855;BME280;68206;59.956;30.234;2023-07-16T12:08:08;101384.84;;;26.51;30.57
78855;BME280;68206;59.956;30.234;2023-07-16T12:10:41;101378.41;;;26.52;30.99
78855;BME280;68206;59.956;30.234;2023-07-16T12:13:09;101379.84;;;26.56;30.74
78855;BME280;68206;59.956;30.234;2023-07-16T12:15:37;101382.09;;;26.51;30.49
78855;BME280;68206;59.956;30.234;2023-07-16T12:18:06;101374.41;;;26.56;30.55
78855;BME280;68206;59.956;30.234;2023-07-16T12:20:35;101378.84;;;26.57;30.49
78855;BME280;68206;59.956;30.234;2023-07-16T12:23:04;101371.97;;;26.53;30.22
78855;BME280;68206;59.956;30.234;2023-07-16T12:25:32;101373.38;;;26.47;30.30
78855;BME280;68206;59.956;30.234;2023-07-16T12:28:00;101362.31;;;26.49;30.21
78855;BME280;68206;59.956;30.234;2023-07-16T12:30:29;101362.19;;;26.50;30.17
78855;BME280;68206;59.956;30.234;2023-07-16T12:32:57;101366.31;;;26.45;30.85
78855;BME280;68206;59.956;30.234;2023-07-16T12:35:25;101353.13;;;26.40;30.56
78855;BME280;68206;59.956;30.234;2023-07-16T12:37:55;101355.91;;;26.50;30.66
78855;BME280;68206;59.956;30.234;2023-07-16T12:40:25;101350.19;;;26.53;30.83
78855;BME280;68206;59.956;30.234;2023-07-16T12:42:53;101349.22;;;26.54;30.95
78855;BME280;68206;59.956;30.234;2023-07-16T12:45:21;101350.91;;;26.55;30.24
78855;BME280;68206;59.956;30.234;2023-07-16T12:47:49;101349.34;;;26.53;30.07
78855;BME280;68206;59.956;30.234;2023-07-16T12:50:17;101342.16;;;26.52;29.94
78855;BME280;68206;59.956;30.234;2023-07-16T12:52:45;101340.66;;;26.59;30.14
78855;BME280;68206;59.956;30.234;2023-07-16T12:55:15;101334.66;;;26.65;29.91
78855;BME280;68206;59.956;30.234;2023-07-16T12:57:44;101333.25;;;26.70;29.92
78855;BME280;68206;59.956;30.234;2023-07-16T13:00:13;101328.59;;;26.61;29.75
78855;BME280;68206;59.956;30.234;2023-07-16T13:02:41;101331.22;;;26.63;30.11
78855;BME280;68206;59.956;30.234;2023-07-16T13:05:09;101336.72;;;26.72;30.40
78855;BME280;68206;59.956;30.234;2023-07-16T13:07:37;101330.88;;;26.77;29.66
78855;BME280;68206;59.956;30.234;2023-07-16T13:10:08;101329.91;;;26.87;29.92